createdAt,value
2017-12-24T00:02:11.635Z,4.53
2017-12-24T00:04:49.957Z,4.70
2017-12-24T00:07:17.880Z,4.73
2017-12-24T00:09:49.297Z,4.40
2017-12-24T00:12:18.569Z,4.87
2017-12-24T00:14:47.684Z,4.87
2017-12-24T00:17:15.615Z,4.90
2017-12-24T00:19:43.455Z,5.00
2017-12-24T00:22:12.082Z,5.00
2017-12-24T00:24:40.125Z,4.83
2017-12-24T00:27:08.078Z,5.23
2017-12-24T00:29:36.685Z,5.20
2017-12-24T00:32:04.563Z,5.70
2017-12-24T00:34:32.525Z,4.60
2017-12-24T00:37:00.417Z,5.27
2017-12-24T00:39:28.623Z,5.10
2017-12-24T00:41:57.984Z,5.03
2017-12-24T00:44:25.961Z,5.03
2017-12-24T00:46:53.999Z,5.20
2017-12-24T00:49:22.112Z,4.67
2017-12-24T00:51:50.058Z,5.60
2017-12-24T00:54:18.702Z,5.17
2017-12-24T00:56:47.547Z,5.47
2017-12-24T00:59:15.917Z,4.90
2017-12-24T01:01:43.767Z,5.17
2017-12-24T01:04:53.576Z,5.33
2017-12-24T01:07:22.378Z,5.70
2017-12-24T01:09:50.322Z,5.47
2017-12-24T01:12:18.906Z,5.30
2017-12-24T01:14:51.729Z,4.77
2017-12-24T01:17:19.836Z,5.53
2017-12-24T01:19:47.811Z,5.13
2017-12-24T01:22:16.435Z,5.20
2017-12-24T01:24:44.674Z,5.37
2017-12-24T01:27:12.630Z,5.47
2017-12-24T01:29:41.357Z,5.17
2017-12-24T01:32:09.458Z,5.80
2017-12-24T01:34:39.294Z,5.73
2017-12-24T01:37:07.936Z,5.10
2017-12-24T01:39:36.008Z,5.30
2017-12-24T01:42:04.092Z,5.20
2017-12-24T01:44:32.345Z,5.13
2017-12-24T01:47:00.257Z,5.40
2017-12-24T01:49:28.260Z,5.00
2017-12-24T01:51:56.179Z,4.87
2017-12-24T01:54:33.217Z,4.93
2017-12-24T01:57:01.277Z,5.47
2017-12-24T01:59:29.380Z,5.03
2017-12-24T02:01:57.332Z,5.00
2017-12-24T02:04:25.393Z,5.20
2017-12-24T02:06:55.042Z,5.40
2017-12-24T02:09:23.059Z,4.87
2017-12-24T02:11:50.991Z,4.93
2017-12-24T02:14:18.952Z,5.27
2017-12-24T02:16:46.811Z,4.83
2017-12-24T02:19:14.812Z,4.67
2017-12-24T02:21:42.806Z,4.50
2017-12-24T02:24:31.434Z,4.57
2017-12-24T02:26:59.940Z,4.77
2017-12-24T02:29:28.057Z,4.60
2017-12-24T02:31:55.948Z,4.37
2017-12-24T02:34:24.125Z,4.13
2017-12-24T02:36:55.059Z,4.23
2017-12-24T02:39:23.086Z,4.43
2017-12-24T02:41:51.951Z,3.80
2017-12-24T02:44:20.174Z,4.47
2017-12-24T02:46:48.345Z,4.90
2017-12-24T02:49:16.365Z,4.57
2017-12-24T02:51:44.253Z,5.10
2017-12-24T02:54:12.390Z,3.23
2017-12-24T02:56:40.424Z,4.70
2017-12-24T02:59:08.494Z,4.43
2017-12-24T03:01:47.272Z,4.60
2017-12-24T03:04:15.483Z,4.13
2017-12-24T03:06:45.817Z,4.00
2017-12-24T03:09:14.810Z,4.23
2017-12-24T03:11:43.421Z,4.33
2017-12-24T03:14:11.246Z,3.83
2017-12-24T03:16:39.238Z,3.93
2017-12-24T03:19:07.901Z,4.17
2017-12-24T03:21:35.836Z,4.40
2017-12-24T03:24:22.030Z,4.00
2017-12-24T03:26:50.527Z,3.70
2017-12-24T03:29:21.541Z,3.63
2017-12-24T03:31:50.549Z,3.70
2017-12-24T03:34:18.852Z,3.80
2017-12-24T03:36:48.206Z,3.57
2017-12-24T03:39:16.054Z,3.70
2017-12-24T03:41:44.771Z,3.70
2017-12-24T03:44:12.741Z,3.63
2017-12-24T03:46:40.752Z,3.70
2017-12-24T03:49:09.837Z,3.50
2017-12-24T03:51:37.933Z,3.37
2017-12-24T03:54:06.077Z,3.70
2017-12-24T03:56:33.941Z,3.30
2017-12-24T03:59:01.913Z,3.70
2017-12-24T04:01:29.830Z,3.17
2017-12-24T04:03:58.536Z,3.63
2017-12-24T04:06:26.530Z,3.40
2017-12-24T04:08:54.576Z,3.80
2017-12-24T04:11:22.520Z,3.60
2017-12-24T04:13:51.096Z,3.53
2017-12-24T04:16:19.089Z,3.80
2017-12-24T04:18:50.115Z,3.90
2017-12-24T04:21:17.996Z,4.10
2017-12-24T04:23:46.678Z,3.80
2017-12-24T04:26:15.143Z,3.30
2017-12-24T04:28:43.722Z,3.80
2017-12-24T04:31:13.923Z,3.97
2017-12-24T04:33:41.842Z,3.90
2017-12-24T04:40:46.703Z,4.00
2017-12-24T04:43:15.738Z,3.70
2017-12-24T04:45:43.722Z,3.53
2017-12-24T04:48:11.727Z,4.33
2017-12-24T04:50:40.303Z,4.00
2017-12-24T04:53:08.075Z,4.27
2017-12-24T04:55:38.637Z,3.87
2017-12-24T04:58:07.050Z,3.57
2017-12-24T05:00:35.753Z,3.80
2017-12-24T05:03:03.653Z,3.70
2017-12-24T05:05:35.519Z,3.37
2017-12-24T05:08:04.102Z,3.77
2017-12-24T05:10:32.786Z,3.40
2017-12-24T05:13:02.570Z,3.37
2017-12-24T05:15:31.217Z,3.47
2017-12-24T05:17:59.089Z,3.43
2017-12-24T05:20:27.153Z,3.43
2017-12-24T05:22:55.036Z,3.53
2017-12-24T05:25:22.949Z,3.30
2017-12-24T05:27:51.986Z,3.60
2017-12-24T05:30:20.625Z,3.50
2017-12-24T05:32:48.464Z,3.10
2017-12-24T05:35:17.348Z,2.90
2017-12-24T05:37:45.652Z,2.67
2017-12-24T05:40:13.697Z,3.53
2017-12-24T05:42:41.593Z,3.47
2017-12-24T05:45:09.445Z,3.20
2017-12-24T05:47:38.147Z,3.50
2017-12-24T05:50:06.693Z,3.40
2017-12-24T05:52:34.564Z,3.23
2017-12-24T05:55:02.571Z,3.10
2017-12-24T05:57:30.508Z,2.90
2017-12-24T05:59:58.333Z,3.47
2017-12-24T06:02:26.242Z,3.60
2017-12-24T06:04:54.149Z,2.93
2017-12-24T06:07:22.399Z,2.87
2017-12-24T06:09:50.326Z,2.80
2017-12-24T06:12:18.295Z,3.20
2017-12-24T06:14:46.185Z,2.67
2017-12-24T06:17:14.275Z,3.13
2017-12-24T06:22:07.998Z,2.73
2017-12-24T06:24:36.375Z,3.30
2017-12-24T06:27:04.715Z,2.87
2017-12-24T06:29:33.305Z,3.47
2017-12-24T06:32:01.304Z,2.40
2017-12-24T06:34:31.312Z,2.70
2017-12-24T06:37:00.791Z,2.50
2017-12-24T06:39:28.686Z,2.80
2017-12-24T06:41:56.718Z,2.87
2017-12-24T06:44:24.780Z,3.20
2017-12-24T06:46:52.625Z,3.07
2017-12-24T06:49:20.616Z,2.57
2017-12-24T06:51:48.635Z,2.60
2017-12-24T06:54:16.574Z,2.60
2017-12-24T06:56:45.222Z,2.37
2017-12-24T06:59:13.142Z,2.50
2017-12-24T07:01:41.984Z,2.70
2017-12-24T07:04:09.861Z,2.80
2017-12-24T07:06:38.492Z,2.60
2017-12-24T07:09:06.545Z,2.57
2017-12-24T07:11:35.447Z,2.73
2017-12-24T07:14:04.761Z,2.23
2017-12-24T07:16:33.057Z,2.87
2017-12-24T07:19:00.929Z,2.70
2017-12-24T07:21:28.914Z,2.63
2017-12-24T07:23:58.835Z,2.40
2017-12-24T07:26:26.902Z,2.70
2017-12-24T07:28:54.705Z,2.70
2017-12-24T07:31:22.648Z,2.60
2017-12-24T07:33:50.498Z,2.67
2017-12-24T07:36:18.400Z,3.00
2017-12-24T07:38:46.274Z,2.60
2017-12-24T07:41:14.937Z,3.00
2017-12-24T07:43:43.883Z,2.70
2017-12-24T07:46:12.785Z,2.50
2017-12-24T07:48:40.766Z,2.43
2017-12-24T07:51:19.213Z,2.70
2017-12-24T07:53:48.415Z,2.57
2017-12-24T07:56:18.021Z,2.47
2017-12-24T07:58:46.709Z,2.60
2017-12-24T08:01:35.461Z,2.30
2017-12-24T08:04:03.640Z,2.70
2017-12-24T08:06:31.490Z,2.53
2017-12-24T08:09:23.082Z,2.30
2017-12-24T08:11:50.962Z,2.30
2017-12-24T08:14:20.210Z,2.60
2017-12-24T08:16:48.976Z,2.20
2017-12-24T08:19:16.858Z,2.70
2017-12-24T08:24:26.571Z,2.30
2017-12-24T08:26:54.387Z,2.47
2017-12-24T08:29:22.459Z,2.33
2017-12-24T08:31:50.768Z,2.53
2017-12-24T08:34:19.336Z,2.73
2017-12-24T08:36:48.979Z,2.83
2017-12-24T08:39:17.067Z,2.83
2017-12-24T08:41:49.349Z,2.97
2017-12-24T08:44:17.374Z,2.87
2017-12-24T08:46:49.071Z,3.17
2017-12-24T08:49:16.944Z,3.00
2017-12-24T08:51:45.544Z,3.00
2017-12-24T08:54:20.355Z,3.20
2017-12-24T08:56:49.301Z,3.23
2017-12-24T08:59:17.950Z,2.90
2017-12-24T09:01:48.071Z,2.73
2017-12-24T09:04:19.232Z,2.73
2017-12-24T09:06:48.686Z,3.33
2017-12-24T09:09:22.640Z,3.23
2017-12-24T09:11:51.430Z,3.20
2017-12-24T09:14:21.861Z,3.00
2017-12-24T09:16:50.321Z,3.10
2017-12-24T09:19:18.177Z,3.47
2017-12-24T09:21:47.062Z,2.87
2017-12-24T09:24:16.063Z,3.03
2017-12-24T09:26:44.886Z,3.37
2017-12-24T09:29:13.086Z,2.90
2017-12-24T09:31:41.010Z,3.03
2017-12-24T09:34:09.785Z,4.73
2017-12-24T09:36:53.174Z,2.97
2017-12-24T09:39:23.921Z,3.20
2017-12-24T09:41:52.283Z,2.70
2017-12-24T09:44:20.699Z,2.90
2017-12-24T09:46:52.509Z,3.13
2017-12-24T09:49:28.946Z,2.93
2017-12-24T09:52:00.922Z,3.00
2017-12-24T09:54:29.049Z,2.90
2017-12-24T09:57:00.820Z,3.03
2017-12-24T09:59:28.894Z,3.10
2017-12-24T10:01:56.863Z,2.70
2017-12-24T10:04:26.196Z,3.10
2017-12-24T10:06:54.363Z,2.67
2017-12-24T10:09:22.417Z,3.00
2017-12-24T10:11:50.401Z,2.93
2017-12-24T10:14:22.506Z,3.37
2017-12-24T10:16:50.770Z,3.00
2017-12-24T10:19:19.150Z,2.70
2017-12-24T10:21:47.092Z,2.83
2017-12-24T10:24:15.986Z,3.03
2017-12-24T10:26:44.802Z,2.57
2017-12-24T10:29:13.820Z,2.60
2017-12-24T10:31:41.845Z,2.70
2017-12-24T10:34:09.827Z,2.23
2017-12-24T10:36:38.759Z,3.07
2017-12-24T10:39:07.769Z,3.00
2017-12-24T10:41:40.776Z,2.60
2017-12-24T10:44:11.305Z,2.90
2017-12-24T10:46:42.739Z,2.57
2017-12-24T10:49:12.447Z,2.80
2017-12-24T10:51:44.136Z,2.63
2017-12-24T10:54:12.404Z,2.40
2017-12-24T10:56:40.514Z,2.73
2017-12-24T10:59:08.401Z,2.33
2017-12-24T11:08:08.424Z,2.63
2017-12-24T11:10:43.214Z,2.50
2017-12-24T11:13:13.993Z,2.43
2017-12-24T11:15:42.318Z,3.37
2017-12-24T11:18:10.688Z,2.23
2017-12-24T11:20:39.052Z,3.00
2017-12-24T11:23:16.944Z,2.40
2017-12-24T11:25:44.893Z,2.80
2017-12-24T11:28:12.840Z,2.40
2017-12-24T11:30:41.872Z,2.60
2017-12-24T11:33:09.948Z,3.67
2017-12-24T11:35:37.787Z,2.63
2017-12-24T11:38:05.798Z,2.30
2017-12-24T11:40:33.865Z,2.53
2017-12-24T11:43:02.920Z,2.50
2017-12-24T11:45:33.173Z,3.10
2017-12-24T11:48:01.050Z,2.60
2017-12-24T11:50:30.255Z,2.23
2017-12-24T11:52:58.555Z,2.60
2017-12-24T11:55:28.290Z,2.57
2017-12-24T11:57:57.358Z,3.00
2017-12-24T12:00:25.614Z,2.77
2017-12-24T12:02:56.610Z,2.33
2017-12-24T12:05:24.904Z,2.53
2017-12-24T12:07:52.992Z,2.30
2017-12-24T12:13:18.490Z,2.40
2017-12-24T12:15:47.081Z,2.60
2017-12-24T12:18:16.857Z,2.53
2017-12-24T12:20:48.425Z,2.43
2017-12-24T12:23:17.132Z,1.97
2017-12-24T12:25:45.753Z,2.00
2017-12-24T12:28:13.684Z,2.03
2017-12-24T12:30:42.376Z,1.97
2017-12-24T12:33:12.821Z,2.30
2017-12-24T12:35:40.736Z,2.53
2017-12-24T12:38:08.584Z,2.13
2017-12-24T12:40:37.194Z,2.07
2017-12-24T12:43:05.097Z,2.00
2017-12-24T12:45:34.188Z,2.37
2017-12-24T12:48:02.064Z,2.73
2017-12-24T12:50:31.410Z,2.50
2017-12-24T12:52:59.463Z,2.57
2017-12-24T12:55:27.725Z,2.20
2017-12-24T12:58:02.083Z,1.70
2017-12-24T13:00:43.180Z,1.90
2017-12-24T13:03:16.039Z,2.00
2017-12-24T13:05:46.582Z,1.80
2017-12-24T13:08:15.724Z,2.30
2017-12-24T13:10:44.307Z,2.00
2017-12-24T13:13:12.745Z,2.00
2017-12-24T13:15:40.708Z,1.70
2017-12-24T13:18:13.331Z,1.70
2017-12-24T13:20:41.483Z,1.87
2017-12-24T13:23:09.934Z,1.53
2017-12-24T13:25:38.600Z,1.60
2017-12-24T13:28:07.322Z,1.83
2017-12-24T13:30:35.284Z,2.00
2017-12-24T13:33:03.637Z,2.20
2017-12-24T13:35:32.778Z,1.60
2017-12-24T13:38:00.710Z,1.90
2017-12-24T13:40:29.411Z,2.00
2017-12-24T13:42:57.377Z,2.03
2017-12-24T13:45:26.983Z,1.30
2017-12-24T13:47:55.855Z,1.77
2017-12-24T13:50:31.385Z,1.80
2017-12-24T13:53:00.149Z,2.00
2017-12-24T13:55:28.102Z,2.00
2017-12-24T13:57:56.406Z,2.30
2017-12-24T14:00:24.546Z,1.93
2017-12-24T14:02:52.518Z,2.10
2017-12-24T14:05:21.131Z,2.20
2017-12-24T14:07:49.292Z,1.63
2017-12-24T14:10:17.752Z,2.33
2017-12-24T14:12:47.964Z,1.90
2017-12-24T14:15:16.084Z,1.80
2017-12-24T14:17:44.254Z,2.40
2017-12-24T14:20:12.495Z,2.23
2017-12-24T14:22:40.531Z,2.10
2017-12-24T14:25:14.526Z,2.40
2017-12-24T14:27:49.364Z,2.20
2017-12-24T14:30:21.027Z,2.40
2017-12-24T14:32:52.417Z,2.20
2017-12-24T14:35:22.758Z,2.40
2017-12-24T14:37:51.758Z,2.57
2017-12-24T14:40:19.641Z,2.20
2017-12-24T14:42:47.610Z,2.80
2017-12-24T14:45:15.886Z,2.90
2017-12-24T14:47:43.794Z,2.20
2017-12-24T14:51:15.558Z,2.77
2017-12-24T14:54:17.988Z,3.20
2017-12-24T14:56:46.970Z,3.10
2017-12-24T14:59:15.716Z,3.10
2017-12-24T15:01:45.039Z,3.50
2017-12-24T15:04:14.336Z,3.10
2017-12-24T15:06:42.285Z,3.13
2017-12-24T15:09:12.737Z,3.23
2017-12-24T15:11:41.902Z,3.17
2017-12-24T15:14:09.798Z,3.47
2017-12-24T15:16:38.888Z,3.13
2017-12-24T15:19:06.906Z,3.10
2017-12-24T15:21:55.822Z,3.30
2017-12-24T15:24:27.972Z,3.10
2017-12-24T15:26:57.144Z,3.70
2017-12-24T15:29:26.328Z,3.33
2017-12-24T15:31:54.186Z,3.67
2017-12-24T15:34:23.167Z,3.10
2017-12-24T15:37:10.816Z,3.73
2017-12-24T15:39:40.351Z,2.97
2017-12-24T15:42:09.379Z,4.07
2017-12-24T15:44:37.430Z,3.50
2017-12-24T15:47:05.742Z,3.00
2017-12-24T15:49:33.650Z,3.03
2017-12-24T15:52:01.437Z,4.23
2017-12-24T15:54:29.349Z,3.80
2017-12-24T15:56:58.211Z,3.90
2017-12-24T15:59:26.797Z,3.10
2017-12-24T16:01:57.802Z,3.43
2017-12-24T16:04:25.756Z,2.80
2017-12-24T16:09:19.556Z,3.50
2017-12-24T16:11:47.501Z,3.37
2017-12-24T16:14:15.522Z,4.07
2017-12-24T16:16:43.400Z,3.10
2017-12-24T16:19:11.335Z,2.70
2017-12-24T16:21:39.286Z,3.37
2017-12-24T16:24:07.533Z,2.80
2017-12-24T16:26:35.673Z,2.57
2017-12-24T16:29:32.164Z,2.93
2017-12-24T16:32:01.057Z,2.90
2017-12-24T16:34:28.848Z,2.87
2017-12-24T16:36:57.735Z,2.17
2017-12-24T16:39:25.735Z,2.73
2017-12-24T16:41:54.402Z,2.00
2017-12-24T16:44:24.065Z,3.00
2017-12-24T16:46:52.136Z,2.90
2017-12-24T16:49:23.748Z,3.13
2017-12-24T16:51:52.949Z,1.60
2017-12-24T16:54:20.977Z,3.93
2017-12-24T16:56:50.511Z,2.87
2017-12-24T16:59:18.560Z,3.07
2017-12-24T17:01:48.191Z,2.60
2017-12-24T17:04:26.133Z,3.50
2017-12-24T17:06:53.998Z,2.33
2017-12-24T17:09:24.082Z,3.07
2017-12-24T17:12:11.564Z,3.30
2017-12-24T17:14:40.279Z,2.40
2017-12-24T17:17:08.935Z,3.23
2017-12-24T17:19:39.001Z,3.00
2017-12-24T17:22:07.550Z,2.80
2017-12-24T17:24:39.776Z,3.13
2017-12-24T17:27:36.854Z,3.20
2017-12-24T17:30:05.008Z,3.40
2017-12-24T17:32:33.085Z,3.30
2017-12-24T17:35:00.917Z,2.87
2017-12-24T17:37:41.498Z,3.33
2017-12-24T17:40:12.284Z,3.40
2017-12-24T17:42:52.664Z,2.60
2017-12-24T17:45:24.501Z,2.50
2017-12-24T17:48:19.774Z,3.37
2017-12-24T17:50:50.047Z,3.30
2017-12-24T17:58:02.158Z,3.67
2017-12-24T18:00:30.707Z,3.67
2017-12-24T18:03:09.485Z,3.47
2017-12-24T18:05:37.606Z,3.57
2017-12-24T18:08:12.374Z,3.03
2017-12-24T18:11:07.191Z,3.30
2017-12-24T18:13:35.556Z,3.80
2017-12-24T18:16:04.154Z,2.90
2017-12-24T18:18:32.580Z,3.40
2017-12-24T18:21:01.960Z,3.70
2017-12-24T18:23:30.798Z,3.50
2017-12-24T18:25:58.690Z,4.43
2017-12-24T18:28:27.055Z,3.03
2017-12-24T18:30:55.092Z,3.50
2017-12-24T18:33:23.262Z,3.60
2017-12-24T18:35:51.247Z,3.17
2017-12-24T18:38:19.045Z,3.40
2017-12-24T18:40:47.320Z,3.73
2017-12-24T18:43:15.290Z,4.13
2017-12-24T18:45:48.416Z,3.67
2017-12-24T18:48:16.421Z,4.17
2017-12-24T18:50:44.413Z,4.17
2017-12-24T18:53:12.413Z,3.50
2017-12-24T18:55:40.259Z,2.73
2017-12-24T18:58:09.338Z,4.00
2017-12-24T19:00:37.986Z,2.90
2017-12-24T19:03:06.205Z,2.77
2017-12-24T19:08:03.298Z,4.43
2017-12-24T19:10:31.601Z,4.00
2017-12-24T19:13:00.490Z,4.13
2017-12-24T19:15:28.717Z,4.10
2017-12-24T19:17:57.177Z,3.40
2017-12-24T19:20:25.678Z,3.60
2017-12-24T19:22:53.712Z,5.10
2017-12-24T19:25:21.587Z,4.00
2017-12-24T19:27:51.644Z,3.80
2017-12-24T19:30:19.564Z,4.60
2017-12-24T19:32:49.625Z,4.50
2017-12-24T19:35:17.599Z,4.90
2017-12-24T19:37:46.130Z,4.80
2017-12-24T19:40:16.539Z,4.23
2017-12-24T19:42:45.034Z,4.77
2017-12-24T19:45:20.877Z,4.97
2017-12-24T19:47:49.005Z,4.60
2017-12-24T19:50:17.700Z,3.87
2017-12-24T19:52:46.656Z,2.97
2017-12-24T19:55:15.515Z,4.00
2017-12-24T19:57:43.587Z,4.20
2017-12-24T20:00:13.568Z,4.67
2017-12-24T20:02:42.432Z,3.03
2017-12-24T20:05:10.968Z,3.90
2017-12-24T20:07:39.236Z,2.60
2017-12-24T20:10:07.261Z,3.17
2017-12-24T20:12:37.068Z,3.70
2017-12-24T20:15:05.234Z,3.50
2017-12-24T20:17:33.190Z,3.40
2017-12-24T20:20:01.014Z,3.37
2017-12-24T20:22:28.913Z,3.00
2017-12-24T20:24:56.903Z,3.13
2017-12-24T20:27:24.913Z,3.07
2017-12-24T20:29:53.678Z,3.40
2017-12-24T20:32:48.622Z,2.93
2017-12-24T20:35:21.457Z,2.80
2017-12-24T20:37:49.765Z,3.10
2017-12-24T20:40:18.365Z,2.90
2017-12-24T20:42:46.176Z,2.03
2017-12-24T20:45:15.084Z,2.53
2017-12-24T20:47:43.044Z,2.83
2017-12-24T20:50:11.369Z,2.73
2017-12-24T20:52:40.088Z,3.00
2017-12-24T20:55:08.100Z,2.80
2017-12-24T20:57:36.130Z,2.30
2017-12-24T21:00:03.942Z,3.17
2017-12-24T21:02:32.684Z,3.00
2017-12-24T21:05:08.963Z,2.90
2017-12-24T21:07:44.083Z,2.90
2017-12-24T21:10:14.864Z,3.33
2017-12-24T21:12:45.122Z,3.83
2017-12-24T21:15:18.861Z,3.67
2017-12-24T21:17:49.921Z,3.83
2017-12-24T21:20:18.670Z,4.00
2017-12-24T21:22:46.891Z,3.50
2017-12-24T21:25:16.978Z,4.20
2017-12-24T21:27:49.597Z,4.30
2017-12-24T21:30:17.455Z,4.10
2017-12-24T21:32:45.467Z,4.00
2017-12-24T21:35:13.360Z,3.80
2017-12-24T21:37:42.098Z,4.13
2017-12-24T21:40:13.405Z,4.07
2017-12-24T21:42:41.533Z,4.13
2017-12-24T21:45:11.125Z,4.60
2017-12-24T21:47:40.052Z,4.07
2017-12-24T21:50:08.008Z,4.13
2017-12-24T21:52:37.348Z,4.03
2017-12-24T21:55:05.245Z,3.90
2017-12-24T21:57:33.185Z,4.07
2017-12-24T22:00:01.061Z,4.00
2017-12-24T22:02:29.591Z,3.93
2017-12-24T22:04:59.516Z,4.50
2017-12-24T22:07:27.700Z,3.43
2017-12-24T22:09:56.331Z,3.50
2017-12-24T22:12:24.320Z,3.30
2017-12-24T22:14:52.274Z,3.40
2017-12-24T22:17:20.886Z,3.60
2017-12-24T22:19:48.858Z,3.30
2017-12-24T22:22:27.750Z,3.10
2017-12-24T22:24:59.436Z,2.70
2017-12-24T22:27:27.351Z,2.50
2017-12-24T22:29:56.220Z,2.97
2017-12-24T22:32:25.141Z,2.83
2017-12-24T22:34:53.634Z,2.60
2017-12-24T22:37:21.571Z,2.60
2017-12-24T22:39:50.437Z,2.70
2017-12-24T22:42:18.300Z,2.83
2017-12-24T22:44:46.300Z,2.83
2017-12-24T22:47:35.345Z,2.60
2017-12-24T22:50:03.296Z,2.80
2017-12-24T22:52:31.578Z,2.83
2017-12-24T22:54:59.418Z,2.90
2017-12-24T22:57:28.404Z,2.83
2017-12-24T22:59:59.214Z,2.93
2017-12-24T23:02:27.160Z,2.90
2017-12-24T23:04:55.783Z,3.00
2017-12-24T23:07:24.554Z,2.93
2017-12-24T23:09:53.510Z,3.23
2017-12-24T23:12:22.404Z,3.37
2017-12-24T23:14:54.696Z,3.00
2017-12-24T23:17:22.885Z,2.90
2017-12-24T23:20:03.733Z,2.60
2017-12-24T23:22:35.600Z,3.30
2017-12-24T23:25:09.366Z,3.10
2017-12-24T23:27:41.912Z,3.23
2017-12-24T23:30:10.192Z,2.83
2017-12-24T23:32:38.883Z,2.70
2017-12-24T23:35:50.463Z,3.23
2017-12-24T23:38:19.243Z,3.10
2017-12-24T23:40:47.177Z,3.97
2017-12-24T23:43:16.334Z,3.40
2017-12-24T23:45:44.273Z,4.03
2017-12-24T23:48:12.208Z,4.17
2017-12-24T23:50:40.613Z,4.10
2017-12-24T23:53:08.811Z,3.90
2017-12-24T23:55:36.799Z,4.50
2017-12-24T23:58:05.420Z,3.77
